Time;durP1;ratioP1;P1;durP2;ratioP2;P2;SDS_P1;SDS_P2;PMS_P1;PMS_P2;Temp;Humidity;BMP_temperature;BMP_pressure;BME280_temperature;BME280_humidity;BME280_pressure;Samples;Min_cycle;Max_cycle;Signal;HPM_P1;HPM_P2
2023/04/04 00:00:20;;;;;;;2.25;0.80;;;;;;;-0.50;61.85;102362.88;4940848;29;20044;-81
2023/04/04 00:02:46;;;;;;;3.20;1.02;;;;;;;-0.52;62.56;102367.94;4940801;29;20107;-79
2023/04/04 00:05:13;;;;;;;1.67;0.90;;;;;;;-0.60;62.70;102361.41;4924373;29;20045;-79
2023/04/04 00:07:39;;;;;;;4.10;0.95;;;;;;;-0.61;63.23;102367.34;4956276;29;20156;-79
2023/04/04 00:10:07;;;;;;;3.35;1.13;;;;;;;-0.63;64.15;102374.06;4940671;29;20039;-80
2023/04/04 00:12:33;;;;;;;2.20;0.77;;;;;;;-0.61;64.36;102369.00;4940488;29;20065;-79
2023/04/04 00:15:00;;;;;;;3.38;0.90;;;;;;;-0.60;64.52;102360.50;4941397;29;20340;-79
2023/04/04 00:17:26;;;;;;;4.28;0.80;;;;;;;-0.64;64.83;102368.81;4940691;29;20047;-79
2023/04/04 00:19:53;;;;;;;2.83;0.90;;;;;;;-0.64;65.56;102364.56;4940301;29;20050;-80
2023/04/04 00:22:19;;;;;;;2.50;1.27;;;;;;;-0.64;66.34;102368.81;4940509;29;20051;-80
2023/04/04 00:24:46;;;;;;;1.05;0.68;;;;;;;-0.67;66.57;102367.81;4941167;29;20500;-79
2023/04/04 00:27:12;;;;;;;2.88;1.85;;;;;;;-0.69;67.08;102365.97;4942747;29;20126;-79
2023/04/04 00:29:39;;;;;;;2.38;0.65;;;;;;;-0.71;67.01;102362.41;4940894;29;20039;-79
2023/04/04 00:32:05;;;;;;;4.45;1.17;;;;;;;-0.72;67.03;102365.75;4940983;29;20039;-79
2023/04/04 00:34:32;;;;;;;3.53;0.88;;;;;;;-0.74;67.11;102367.34;4925222;29;20047;-80
2023/04/04 00:36:58;;;;;;;3.33;0.70;;;;;;;-0.79;67.91;102369.59;4940777;29;20050;-79
2023/04/04 00:39:25;;;;;;;4.78;1.20;;;;;;;-0.82;68.25;102360.81;4957516;29;20047;-79
2023/04/04 00:41:52;;;;;;;1.90;1.15;;;;;;;-0.82;68.71;102364.28;4940633;29;20083;-79
2023/04/04 00:44:18;;;;;;;6.63;2.53;;;;;;;-0.82;68.42;102358.22;4940600;29;20043;-78
2023/04/04 00:46:45;;;;;;;3.90;1.08;;;;;;;-0.84;68.83;102360.72;4923891;29;20054;-78
2023/04/04 00:49:12;;;;;;;2.90;1.42;;;;;;;-0.87;68.88;102363.09;4940513;29;20050;-80
2023/04/04 00:51:38;;;;;;;2.65;2.03;;;;;;;-0.87;69.68;102363.09;4924427;29;20039;-80
2023/04/04 00:54:05;;;;;;;0.93;0.75;;;;;;;-0.88;69.79;102361.31;4940397;29;20035;-79
2023/04/04 00:56:33;;;;;;;5.70;1.10;;;;;;;-0.90;70.11;102361.22;4940187;29;20039;-79
2023/04/04 00:59:00;;;;;;;4.07;0.80;;;;;;;-0.89;70.50;102355.25;4939990;29;20098;-78
2023/04/04 01:01:27;;;;;;;2.67;1.25;;;;;;;-0.91;71.14;102354.28;4940027;29;20047;-79
2023/04/04 01:03:53;;;;;;;9.88;1.42;;;;;;;-0.94;71.01;102361.81;4924725;29;20357;-81
2023/04/04 01:06:20;;;;;;;1.92;1.00;;;;;;;-0.93;71.77;102355.84;4939160;29;20055;-80
2023/04/04 01:08:47;;;;;;;1.33;0.98;;;;;;;-0.95;71.32;102354.88;4939750;29;20039;-80
2023/04/04 01:11:15;;;;;;;3.38;0.95;;;;;;;-0.98;71.63;102361.50;4940022;29;20039;-80
2023/04/04 01:13:43;;;;;;;4.07;1.55;;;;;;;-1.02;72.49;102361.28;4940539;29;20054;-78
2023/04/04 01:16:09;;;;;;;3.13;1.00;;;;;;;-1.06;72.61;102358.41;4939060;29;20075;-78
2023/04/04 01:18:36;;;;;;;3.58;1.40;;;;;;;-1.07;72.66;102356.63;4940919;29;20134;-79
2023/04/04 01:21:10;;;;;;;3.13;1.02;;;;;;;-1.06;72.77;102355.84;4924586;29;20043;-79
2023/04/04 01:23:50;;;;;;;5.75;0.93;;;;;;;-1.07;74.01;102356.63;4940250;29;20079;-79
2023/04/04 01:26:17;;;;;;;2.80;1.10;;;;;;;-1.07;73.86;102351.47;4940513;29;20046;-82
2023/04/04 01:28:43;;;;;;;3.22;1.15;;;;;;;-1.09;74.27;102356.53;4924663;29;20054;-78
2023/04/04 01:31:14;;;;;;;6.00;1.13;;;;;;;-1.11;73.53;102350.38;4940938;29;20047;-79
2023/04/04 01:33:47;;;;;;;2.53;1.20;;;;;;;-1.14;74.22;102347.63;4940454;29;20039;-79
2023/04/04 01:36:26;;;;;;;3.97;1.02;;;;;;;-1.19;74.10;102352.47;4925608;29;20047;-81
2023/04/04 01:39:06;;;;;;;2.45;1.33;;;;;;;-1.19;74.57;102351.56;4940609;29;20059;-81
2023/04/04 01:41:36;;;;;;;3.33;1.48;;;;;;;-1.20;75.38;102349.78;4941608;29;20039;-79
2023/04/04 01:44:06;;;;;;;1.60;1.00;;;;;;;-1.24;75.17;102346.13;4958122;29;20050;-79
2023/04/04 01:46:32;;;;;;;3.05;1.52;;;;;;;-1.24;75.52;102345.22;4940115;29;20565;-80
2023/04/04 01:48:59;;;;;;;2.65;1.00;;;;;;;-1.28;75.18;102346.69;4939644;29;20463;-80
2023/04/04 01:51:25;;;;;;;4.35;0.95;;;;;;;-1.33;75.68;102343.84;4955706;29;20455;-79
2023/04/04 01:53:52;;;;;;;3.10;1.35;;;;;;;-1.36;75.91;102335.91;4939403;29;20046;-79
2023/04/04 01:56:19;;;;;;;4.68;1.67;;;;;;;-1.34;76.24;102325.75;4940071;29;20039;-79
2023/04/04 01:58:46;;;;;;;3.15;1.27;;;;;;;-1.36;76.50;102329.88;4923685;29;20476;-80
2023/04/04 02:01:13;;;;;;;3.28;1.00;;;;;;;-1.34;76.77;102331.78;4939187;29;20039;-79
2023/04/04 02:03:39;;;;;;;2.70;0.80;;;;;;;-1.32;77.60;102331.88;4939616;29;20043;-79
2023/04/04 02:06:06;;;;;;;2.97;1.40;;;;;;;-1.32;77.25;102334.44;4924248;29;20053;-79
2023/04/04 02:08:33;;;;;;;6.07;2.00;;;;;;;-1.37;77.59;102329.00;4956280;29;20042;-80
2023/04/04 02:11:00;;;;;;;3.97;1.10;;;;;;;-1.40;77.81;102333.03;4944473;29;20035;-79
2023/04/04 02:13:26;;;;;;;8.10;1.73;;;;;;;-1.42;77.63;102327.81;4939042;29;20153;-79
2023/04/04 02:15:53;;;;;;;5.18;1.60;;;;;;;-1.41;78.46;102333.81;4941772;29;20102;-79
2023/04/04 02:18:19;;;;;;;3.25;1.20;;;;;;;-1.47;77.88;102334.31;4939422;29;20047;-79
2023/04/04 02:20:46;;;;;;;1.92;1.33;;;;;;;-1.52;78.65;102327.97;4938889;29;20098;-80
2023/04/04 02:23:12;;;;;;;2.33;0.90;;;;;;;-1.52;78.94;102325.41;4939183;29;20466;-80
2023/04/04 02:25:39;;;;;;;2.63;1.13;;;;;;;-1.55;78.59;102328.66;4941193;29;20042;-79
2023/04/04 02:28:05;;;;;;;5.78;1.55;;;;;;;-1.57;79.12;102329.34;4938995;29;20039;-78
2023/04/04 02:30:32;;;;;;;2.72;1.42;;;;;;;-1.55;79.58;102317.47;4939511;29;20073;-78
2023/04/04 02:33:01;;;;;;;6.65;2.17;;;;;;;-1.52;79.91;102325.41;4938756;29;20035;-79
2023/04/04 02:35:28;;;;;;;3.72;1.63;;;;;;;-1.50;80.49;102319.59;4938733;29;20047;-79
2023/04/04 02:37:55;;;;;;;4.20;1.85;;;;;;;-1.46;80.22;102324.91;4939004;29;20055;-80
2023/04/04 02:40:21;;;;;;;2.45;1.17;;;;;;;-1.49;80.78;102315.34;4954647;29;20036;-80
2023/04/04 02:42:48;;;;;;;2.35;1.00;;;;;;;-1.47;80.62;102313.78;4954422;29;20058;-80
2023/04/04 02:45:14;;;;;;;1.75;1.15;;;;;;;-1.44;80.38;102313.97;4938996;29;20050;-79
2023/04/04 02:47:42;;;;;;;1.55;1.33;;;;;;;-1.45;80.94;102307.03;4938136;29;20039;-81
2023/04/04 02:50:10;;;;;;;5.80;2.25;;;;;;;-1.45;80.51;102306.16;4922139;29;20095;-80
2023/04/04 02:52:37;;;;;;;2.30;1.20;;;;;;;-1.49;80.59;102299.91;4938851;29;20470;-78
2023/04/04 02:55:04;;;;;;;2.00;1.42;;;;;;;-1.50;81.92;102304.19;4938138;29;20058;-79
2023/04/04 02:57:31;;;;;;;2.25;1.55;;;;;;;-1.48;81.90;102303.41;4937836;29;20066;-79
2023/04/04 02:59:57;;;;;;;5.13;1.48;;;;;;;-1.48;81.88;102294.00;4954810;29;20065;-79
2023/04/04 03:02:27;;;;;;;2.78;1.48;;;;;;;-1.47;82.07;102295.78;4954715;29;20047;-79
2023/04/04 03:04:53;;;;;;;3.67;2.10;;;;;;;-1.49;82.35;102289.66;4938597;29;20054;-79
2023/04/04 03:07:21;;;;;;;2.85;1.33;;;;;;;-1.51;82.45;102291.25;4939440;29;20054;-79
2023/04/04 03:09:49;;;;;;;1.58;1.25;;;;;;;-1.53;82.61;102285.09;4955410;29;20039;-79
2023/04/04 03:12:15;;;;;;;2.90;2.22;;;;;;;-1.53;82.75;102283.41;4954428;29;20044;-80
2023/04/04 03:14:42;;;;;;;2.22;1.63;;;;;;;-1.53;83.19;102279.97;4938629;29;20130;-79
2023/04/04 03:17:09;;;;;;;5.60;1.55;;;;;;;-1.54;83.36;102286.78;4937922;29;20046;-80
2023/04/04 03:19:36;;;;;;;2.53;1.27;;;;;;;-1.52;83.17;102287.75;4938394;29;20043;-79
2023/04/04 03:22:02;;;;;;;5.70;1.15;;;;;;;-1.52;83.57;102285.19;4938876;29;20047;-79
2023/04/04 03:24:31;;;;;;;8.52;2.88;;;;;;;-1.55;82.88;102271.25;4938147;29;20038;-78
2023/04/04 03:27:00;;;;;;;2.17;1.15;;;;;;;-1.58;83.70;102274.50;4923496;29;20425;-80
2023/04/04 03:29:27;;;;;;;3.75;1.38;;;;;;;-1.59;84.20;102267.63;4937982;29;20363;-80
2023/04/04 03:31:56;;;;;;;2.80;1.65;;;;;;;-1.58;83.48;102277.06;4938254;29;20050;-80
2023/04/04 03:34:23;;;;;;;2.05;1.20;;;;;;;-1.58;83.97;102276.19;4938268;29;20043;-80
2023/04/04 03:36:50;;;;;;;3.63;1.27;;;;;;;-1.62;83.94;102272.53;4938368;29;20477;-79
2023/04/04 03:39:17;;;;;;;2.22;1.27;;;;;;;-1.59;84.55;102270.19;4939070;29;20039;-80
2023/04/04 03:41:43;;;;;;;1.70;1.35;;;;;;;-1.60;84.36;102264.91;4941303;29;20062;-79
2023/04/04 03:44:10;;;;;;;4.07;1.40;;;;;;;-1.63;84.10;102267.28;4941049;29;20054;-80
2023/04/04 03:46:36;;;;;;;1.35;1.08;;;;;;;-1.65;84.27;102269.78;4941845;29;20039;-80
2023/04/04 03:49:03;;;;;;;4.65;1.33;;;;;;;-1.68;84.34;102273.00;4940890;29;20042;-80
2023/04/04 03:51:30;;;;;;;3.13;1.40;;;;;;;-1.68;85.18;102264.44;4941147;29;20050;-79
2023/04/04 03:53:57;;;;;;;5.68;1.45;;;;;;;-1.69;84.77;102266.09;4925454;29;20035;-79
2023/04/04 03:56:26;;;;;;;18.98;2.25;;;;;;;-1.67;84.53;102264.53;4941512;29;20054;-79
2023/04/04 03:58:54;;;;;;;1.40;1.23;;;;;;;-1.69;84.81;102262.66;4941213;29;20063;-79
2023/04/04 04:01:22;;;;;;;4.30;1.60;;;;;;;-1.70;84.02;102255.72;4956921;29;20051;-79
2023/04/04 04:03:48;;;;;;;2.53;1.20;;;;;;;-1.70;84.51;102254.03;4958550;29;20031;-80
2023/04/04 04:06:14;;;;;;;4.10;1.00;;;;;;;-1.69;85.05;102254.94;4941622;29;20051;-79
2023/04/04 04:08:41;;;;;;;5.40;1.80;;;;;;;-1.68;84.07;102254.16;4941292;29;20066;-79
2023/04/04 04:11:08;;;;;;;1.33;1.00;;;;;;;-1.74;83.93;102257.19;4941054;29;20094;-79
2023/04/04 04:13:36;;;;;;;1.35;1.15;;;;;;;-1.77;84.39;102264.69;4940995;29;20042;-79
2023/04/04 04:16:03;;;;;;;2.58;1.40;;;;;;;-1.81;84.24;102259.25;4958736;29;20035;-78
2023/04/04 04:18:29;;;;;;;5.07;2.58;;;;;;;-1.83;84.89;102256.59;4941844;29;20067;-79
2023/04/04 04:21:01;;;;;;;2.88;1.95;;;;;;;-1.83;84.87;102261.72;4942093;29;20047;-79
2023/04/04 04:23:29;;;;;;;2.42;1.38;;;;;;;-1.84;84.40;102257.34;4946585;29;20043;-79
2023/04/04 04:25:55;;;;;;;2.85;1.50;;;;;;;-1.86;84.59;102272.66;4973568;29;20063;-79
2023/04/04 04:28:23;;;;;;;11.38;6.07;;;;;;;-1.90;85.28;102262.97;4950381;29;20047;-79
2023/04/04 04:30:50;;;;;;;4.20;1.50;;;;;;;-1.88;85.27;102270.78;4941493;29;20063;-80
2023/04/04 04:33:19;;;;;;;4.55;1.80;;;;;;;-1.88;85.22;102265.66;4941308;29;20047;-79
2023/04/04 04:35:46;;;;;;;3.72;1.25;;;;;;;-1.87;84.89;102263.19;4941421;29;20046;-79
2023/04/04 04:38:13;;;;;;;3.90;1.45;;;;;;;-1.87;84.94;102263.19;4940943;29;20046;-79
2023/04/04 04:40:39;;;;;;;4.10;1.45;;;;;;;-1.85;85.41;102261.63;4940841;29;20043;-79
2023/04/04 04:43:06;;;;;;;2.78;1.35;;;;;;;-1.84;84.98;102259.94;4941067;29;20051;-79
2023/04/04 04:45:32;;;;;;;1.67;1.58;;;;;;;-1.84;84.68;102265.06;4941324;29;20039;-80
2023/04/04 04:47:59;;;;;;;1.50;1.00;;;;;;;-1.89;84.70;102262.19;4941046;29;20071;-81
2023/04/04 04:50:26;;;;;;;2.78;1.23;;;;;;;-1.88;84.66;102263.06;4940163;29;20039;-78
2023/04/04 04:52:52;;;;;;;3.65;2.22;;;;;;;-1.89;85.06;102264.78;4940183;29;20043;-79
2023/04/04 04:55:19;;;;;;;3.20;1.83;;;;;;;-1.89;85.03;102254.50;4924777;29;20119;-80
2023/04/04 04:57:48;;;;;;;5.85;3.90;;;;;;;-1.87;85.34;102262.28;4940056;29;20047;-80
2023/04/04 05:00:16;;;;;;;8.90;4.35;;;;;;;-1.90;85.16;102255.28;4940692;29;20142;-79
2023/04/04 05:02:42;;;;;;;8.40;3.63;;;;;;;-1.90;84.95;102262.97;4939981;29;20082;-80
2023/04/04 05:05:09;;;;;;;4.72;2.95;;;;;;;-1.91;85.49;102266.31;4940086;29;20054;-79
2023/04/04 05:07:36;;;;;;;6.45;2.00;;;;;;;-1.91;85.54;102262.88;4940762;29;20031;-80
2023/04/04 05:10:05;;;;;;;3.30;1.63;;;;;;;-1.91;85.50;102268.91;4940900;29;20039;-80
2023/04/04 05:12:32;;;;;;;7.07;2.25;;;;;;;-1.97;85.33;102268.47;4958875;29;20057;-79
2023/04/04 05:14:58;;;;;;;3.00;1.25;;;;;;;-1.95;86.10;102272.03;4925826;29;20039;-80
2023/04/04 05:17:25;;;;;;;4.43;1.45;;;;;;;-1.94;86.16;102273.84;4939898;29;20098;-80
2023/04/04 05:19:51;;;;;;;5.80;2.63;;;;;;;-1.89;86.48;102272.47;4958105;23;20050;-79
2023/04/04 05:22:18;;;;;;;4.53;1.73;;;;;;;-1.76;86.84;102276.75;4942885;28;20053;-79
2023/04/04 05:24:45;;;;;;;3.15;1.70;;;;;;;-1.71;86.17;102285.66;4959642;28;20058;-81
2023/04/04 05:27:11;;;;;;;3.78;1.33;;;;;;;-1.70;86.03;102287.41;4958807;28;20074;-80
2023/04/04 05:29:38;;;;;;;4.30;2.05;;;;;;;-1.62;86.66;102292.19;4958812;28;20059;-79
2023/04/04 05:32:04;;;;;;;6.00;1.75;;;;;;;-1.54;86.92;102289.34;4959617;28;20046;-80
2023/04/04 05:34:31;;;;;;;4.03;1.40;;;;;;;-1.50;86.34;102293.91;4942917;28;20331;-80
2023/04/04 05:36:57;;;;;;;6.47;1.90;;;;;;;-1.48;85.99;102288.88;4943075;28;20043;-80
2023/04/04 05:39:24;;;;;;;3.95;1.45;;;;;;;-1.47;85.48;102289.75;4960733;28;20059;-79
2023/04/04 05:41:51;;;;;;;2.78;1.80;;;;;;;-1.47;85.74;102297.44;4943672;28;20141;-80
2023/04/04 05:44:17;;;;;;;9.55;1.67;;;;;;;-1.44;86.13;102301.13;4960823;28;20053;-80
2023/04/04 05:46:44;;;;;;;6.85;2.38;;;;;;;-1.42;85.87;102294.41;4960587;28;20106;-81
2023/04/04 05:49:13;;;;;;;5.35;2.35;;;;;;;-1.39;85.89;102299.75;4943509;29;20047;-80
2023/04/04 05:51:39;;;;;;;7.53;2.75;;;;;;;-1.32;85.97;102295.91;4941225;29;20514;-79
2023/04/04 05:54:06;;;;;;;8.38;2.90;;;;;;;-1.32;86.25;102298.47;4962763;28;20039;-80
2023/04/04 05:56:34;;;;;;;9.98;3.60;;;;;;;-1.29;86.06;102301.25;4969546;28;20035;-80
2023/04/04 05:59:01;;;;;;;4.30;1.73;;;;;;;-1.21;86.68;102301.78;4984742;28;20094;-79
2023/04/04 06:01:28;;;;;;;6.05;1.80;;;;;;;-1.19;86.24;102300.16;4967405;28;20042;-79
2023/04/04 06:03:54;;;;;;;13.80;5.18;;;;;;;-1.09;85.85;102304.25;4983346;28;20442;-80
2023/04/04 06:06:21;;;;;;;5.20;2.03;;;;;;;-1.06;85.81;102307.88;4951778;28;20035;-81
2023/04/04 06:08:48;;;;;;;2.00;1.80;;;;;;;-1.03;85.52;102302.06;4969471;28;20095;-82
2023/04/04 06:11:14;;;;;;;9.88;2.60;;;;;;;-0.97;85.38;102306.72;4952650;28;20045;-81
2023/04/04 06:13:41;;;;;;;5.00;2.28;;;;;;;-0.89;85.66;102308.09;4968492;28;20057;-79
2023/04/04 06:16:07;;;;;;;3.88;2.13;;;;;;;-0.82;85.16;102312.84;4950210;29;20043;-80
2023/04/04 06:18:34;;;;;;;3.60;1.83;;;;;;;-0.74;84.12;102308.22;4965101;28;20035;-80
2023/04/04 06:21:00;;;;;;;5.72;1.67;;;;;;;-0.65;84.34;102305.31;4966106;29;20135;-81
2023/04/04 06:23:28;;;;;;;9.68;3.20;;;;;;;-0.52;84.33;102306.19;4968707;29;20053;-81
2023/04/04 06:25:55;;;;;;;3.65;1.40;;;;;;;-0.42;82.92;102309.34;4952632;29;20040;-81
2023/04/04 06:28:21;;;;;;;5.88;1.95;;;;;;;-0.23;82.54;102306.25;4952325;29;20066;-80
2023/04/04 06:30:49;;;;;;;10.45;1.90;;;;;;;0.03;81.94;102310.41;4965033;29;20078;-80
2023/04/04 06:33:15;;;;;;;3.42;1.85;;;;;;;0.32;80.22;102309.56;4928622;29;20039;-79
2023/04/04 06:35:42;;;;;;;2.35;1.35;;;;;;;0.63;78.84;102305.34;4941254;29;20051;-80
2023/04/04 06:38:08;;;;;;;2.85;1.40;;;;;;;0.87;76.96;102307.56;4955351;29;20393;-80
2023/04/04 06:40:35;;;;;;;2.65;1.55;;;;;;;1.03;76.31;102306.75;4956818;29;20094;-80
2023/04/04 06:43:02;;;;;;;6.32;1.83;;;;;;;1.26;75.45;102313.19;4947467;29;20062;-80
2023/04/04 06:45:32;;;;;;;6.78;1.38;;;;;;;1.64;73.71;102306.66;4954068;29;20138;-79
2023/04/04 06:47:59;;;;;;;7.63;2.03;;;;;;;1.98;71.39;102300.72;4940861;29;20201;-80
2023/04/04 06:50:26;;;;;;;7.65;2.15;;;;;;;2.31;69.98;102300.72;4940060;29;20050;-80
2023/04/04 06:52:54;;;;;;;5.25;1.50;;;;;;;2.67;69.10;102305.09;4939103;29;20362;-79
2023/04/04 06:55:22;;;;;;;6.53;1.70;;;;;;;2.90;67.16;102306.25;4956646;29;20057;-79
2023/04/04 06:57:48;;;;;;;6.43;1.98;;;;;;;2.87;66.86;102301.81;4939425;29;20043;-80
2023/04/04 07:00:16;;;;;;;3.08;1.50;;;;;;;3.02;65.79;102304.25;4955082;29;20067;-81
2023/04/04 07:02:42;;;;;;;5.18;1.42;;;;;;;3.23;65.31;102304.38;4938673;29;20047;-80
2023/04/04 07:05:16;;;;;;;6.70;1.83;;;;;;;3.47;62.86;102309.84;4938655;29;20062;-79
2023/04/04 07:07:44;;;;;;;;;;;;;;;3.69;61.35;102308.28;4939167;29;20098;-80
2023/04/04 07:10:11;;;;;;;4.43;1.60;;;;;;;4.03;60.61;102311.47;4938519;29;19922;-80
2023/04/04 07:12:37;;;;;;;6.43;1.50;;;;;;;4.24;60.06;102321.94;4924011;28;20047;-82
2023/04/04 07:15:04;;;;;;;4.78;1.35;;;;;;;4.53;59.71;102307.63;4941560;29;20525;-80
2023/04/04 07:17:31;;;;;;;2.40;1.10;;;;;;;4.80;57.05;102301.81;4925829;29;20051;-80
2023/04/04 07:19:57;;;;;;;6.18;1.35;;;;;;;5.02;57.01;102303.59;4941860;29;20065;-80
2023/04/04 07:22:24;;;;;;;1.20;0.90;;;;;;;5.36;55.92;102307.53;4942200;29;20135;-79
2023/04/04 07:24:51;;;;;;;4.20;1.27;;;;;;;5.88;52.66;102310.31;4942606;29;20046;-81
2023/04/04 07:27:17;;;;;;;2.40;1.33;;;;;;;6.13;52.05;102306.97;4943293;29;20051;-79
2023/04/04 07:29:44;;;;;;;5.05;2.08;;;;;;;6.38;50.86;102313.03;4942252;29;20043;-80
2023/04/04 07:32:10;;;;;;;2.03;1.27;;;;;;;6.87;50.93;102306.91;4941831;29;20093;-80
2023/04/04 07:34:37;;;;;;;3.50;2.22;;;;;;;7.26;49.55;102316.81;4952968;29;20401;-80
2023/04/04 07:37:04;;;;;;;3.38;1.50;;;;;;;7.47;49.05;102312.22;4957872;29;20454;-80
2023/04/04 07:39:31;;;;;;;4.82;1.83;;;;;;;7.62;48.38;102317.91;4941197;29;20077;-80
2023/04/04 07:41:57;;;;;;;6.15;3.08;;;;;;;7.87;47.22;102311.69;4941279;29;20047;-81
2023/04/04 07:44:24;;;;;;;7.25;1.75;;;;;;;7.95;44.84;102311.91;4941398;29;20081;-80
2023/04/04 07:46:50;;;;;;;4.47;1.55;;;;;;;8.30;45.87;102305.91;4941242;29;20039;-80
2023/04/04 07:49:17;;;;;;;5.03;1.48;;;;;;;8.31;44.30;102310.28;4941747;29;20119;-81
2023/04/04 07:51:44;;;;;;;4.25;1.52;;;;;;;8.39;43.67;102300.94;4941260;29;20323;-82
2023/04/04 07:54:10;;;;;;;4.28;1.20;;;;;;;8.49;42.54;102305.59;4957375;29;20038;-81
2023/04/04 07:56:37;;;;;;;2.38;1.17;;;;;;;8.71;42.49;102304.41;4945601;29;20049;-81
2023/04/04 07:59:03;;;;;;;2.72;0.90;;;;;;;9.28;41.70;102297.03;4941716;29;20050;-81
2023/04/04 08:01:33;;;;;;;3.20;1.20;;;;;;;10.10;41.27;102301.38;4941951;29;20040;-80
2023/04/04 08:03:59;;;;;;;4.47;1.70;;;;;;;10.36;40.04;102291.44;4941770;29;20040;-81
2023/04/04 08:06:26;;;;;;;3.05;1.90;;;;;;;10.63;39.57;102291.94;4956891;29;20043;-81
2023/04/04 08:08:53;;;;;;;4.97;1.35;;;;;;;11.20;39.11;102287.59;4940898;29;20343;-81
2023/04/04 08:11:23;;;;;;;4.15;1.80;;;;;;;11.58;38.44;102285.50;4940740;29;20044;-81
2023/04/04 08:13:50;;;;;;;2.95;1.20;;;;;;;11.98;36.88;102279.00;4941006;29;20041;-81
2023/04/04 08:16:17;;;;;;;2.35;0.93;;;;;;;11.58;37.66;102276.75;4957091;29;20043;-81
2023/04/04 08:18:43;;;;;;;1.50;1.40;;;;;;;11.64;36.84;102282.09;4940874;29;20048;-80
2023/04/04 08:21:10;;;;;;;2.78;1.30;;;;;;;11.97;35.61;102280.75;4937490;29;20127;-81
2023/04/04 08:23:36;;;;;;;1.83;0.90;;;;;;;12.13;33.60;102276.53;4937838;29;20035;-81
2023/04/04 08:26:03;;;;;;;2.38;1.10;;;;;;;11.75;33.87;102277.81;4937664;29;20063;-81
2023/04/04 08:28:30;;;;;;;3.95;1.73;;;;;;;12.02;34.34;102276.44;4938535;29;20108;-81
2023/04/04 08:30:56;;;;;;;3.72;1.30;;;;;;;12.41;32.65;102274.19;4938338;29;20421;-80
2023/04/04 08:33:23;;;;;;;5.75;1.63;;;;;;;12.24;32.77;102276.66;4937581;29;20042;-80
2023/04/04 08:35:50;;;;;;;2.75;0.77;;;;;;;11.75;31.44;102274.34;4929317;29;20053;-82
2023/04/04 08:38:17;;;;;;;3.33;1.50;;;;;;;12.07;31.83;102265.97;4922479;29;20044;-81
2023/04/04 08:40:47;;;;;;;3.65;1.25;;;;;;;11.96;31.16;102268.47;4937220;29;20531;-80
2023/04/04 08:43:15;;;;;;;3.35;1.23;;;;;;;12.84;30.30;102263.16;4937087;29;20100;-81
2023/04/04 08:45:45;;;;;;;2.22;1.13;;;;;;;12.99;30.40;102263.28;4937117;29;20539;-82
2023/04/04 08:48:12;;;;;;;2.20;1.70;;;;;;;13.13;29.51;102266.00;4938037;29;20468;-80
2023/04/04 08:50:40;;;;;;;5.45;1.40;;;;;;;13.02;29.92;102262.41;4937353;29;20063;-81
2023/04/04 08:53:09;;;;;;;3.83;1.50;;;;;;;13.25;30.86;102259.94;4952854;29;20043;-80
2023/04/04 08:55:35;;;;;;;2.40;1.38;;;;;;;13.50;30.20;102262.72;4921831;29;20147;-82
2023/04/04 08:58:02;;;;;;;4.45;1.83;;;;;;;13.50;29.23;102262.72;4937698;29;20078;-82
2023/04/04 09:00:28;;;;;;;1.20;0.88;;;;;;;14.13;29.51;102257.69;4939587;29;20487;-81
2023/04/04 09:03:25;;;;;;;2.50;1.00;;;;;;;15.00;27.77;102258.59;4952034;29;20063;-81
2023/04/04 09:05:53;;;;;;;2.53;1.05;;;;;;;14.49;28.05;102260.34;4941393;29;20044;-82
2023/04/04 09:08:23;;;;;;;3.45;1.23;;;;;;;14.71;27.79;102254.22;4953472;29;20050;-80
2023/04/04 09:13:32;;;;;;;5.88;1.83;;;;;;;13.37;28.75;102249.50;4937158;29;20123;-82
2023/04/04 09:15:59;;;;;;;1.80;1.05;;;;;;;13.42;29.36;102259.19;4952971;29;20059;-82
2023/04/04 09:18:25;;;;;;;2.83;1.23;;;;;;;14.11;28.27;102254.16;4921833;29;20047;-81
2023/04/04 09:20:52;;;;;;;6.28;1.45;;;;;;;14.59;27.85;102259.47;4936779;29;20055;-82
2023/04/04 09:23:22;;;;;;;3.17;0.98;;;;;;;15.35;27.81;102247.06;4936884;29;20051;-82
2023/04/04 09:25:52;;;;;;;1.20;1.08;;;;;;;16.19;25.96;102250.22;4937722;29;20497;-82
2023/04/04 09:28:19;;;;;;;4.00;1.60;;;;;;;16.57;25.60;102240.25;4937064;29;20103;-80
2023/04/04 09:30:51;;;;;;;5.13;1.30;;;;;;;16.69;26.02;102241.91;4938172;29;20044;-81
2023/04/04 09:33:20;;;;;;;2.65;0.70;;;;;;;17.10;25.07;102234.47;4939676;29;20047;-81
2023/04/04 09:35:57;;;;;;;4.15;1.17;;;;;;;17.07;24.67;102224.78;4941170;29;20035;-82
2023/04/04 09:38:27;;;;;;;3.90;1.25;;;;;;;16.89;25.50;102227.59;4939842;29;20491;-81
2023/04/04 09:40:55;;;;;;;1.15;0.65;;;;;;;17.72;23.98;102239.00;4939784;29;20135;-81
2023/04/04 09:43:24;;;;;;;0.82;0.40;;;;;;;17.17;23.61;102231.72;4940550;29;20058;-81
2023/04/04 09:45:52;;;;;;;2.90;0.75;;;;;;;16.80;24.33;102231.22;4940949;29;20045;-80
2023/04/04 09:48:32;;;;;;;0.80;0.75;;;;;;;16.37;23.77;102236.00;4940517;29;20103;-82
2023/04/04 09:50:59;;;;;;;0.65;0.47;;;;;;;16.04;24.13;102239.75;4942835;29;20094;-81
2023/04/04 09:53:25;;;;;;;0.73;0.60;;;;;;;16.52;23.94;102242.03;4941573;29;20471;-82
2023/04/04 09:55:54;;;;;;;2.17;0.65;;;;;;;16.80;23.82;102233.84;4940300;29;20506;-81
2023/04/04 09:58:27;;;;;;;1.20;0.35;;;;;;;17.65;23.16;102235.56;4942597;29;20043;-81
2023/04/04 10:01:00;;;;;;;0.65;0.63;;;;;;;18.45;21.91;102237.06;4929388;29;20067;-81
2023/04/04 10:03:27;;;;;;;1.40;0.98;;;;;;;18.97;21.47;102232.63;4923359;29;20052;-81
2023/04/04 10:06:05;;;;;;;1.17;0.77;;;;;;;19.49;20.32;102235.16;4921066;29;20054;-81
2023/04/04 10:08:33;;;;;;;1.10;0.50;;;;;;;18.80;20.83;102238.22;4920064;29;20051;-82
2023/04/04 10:11:02;;;;;;;1.38;0.63;;;;;;;17.37;21.65;102235.91;4919774;29;20056;-80
2023/04/04 10:13:31;;;;;;;1.85;0.60;;;;;;;17.50;22.15;102231.34;4919691;29;20047;-82
2023/04/04 10:16:00;;;;;;;2.72;0.70;;;;;;;18.19;21.79;102227.75;4951704;29;20447;-82
2023/04/04 10:18:33;;;;;;;1.45;0.95;;;;;;;18.74;21.82;102233.03;4935542;29;20087;-81
2023/04/04 10:21:05;;;;;;;1.65;0.70;;;;;;;18.94;19.57;102231.81;4919395;29;20415;-81
2023/04/04 10:23:33;;;;;;;0.87;0.60;;;;;;;18.54;20.11;102229.84;4951625;29;20047;-82
2023/04/04 10:26:00;;;;;;;0.95;0.60;;;;;;;18.63;19.75;102225.25;4935532;29;20039;-81
2023/04/04 10:28:28;;;;;;;0.65;0.43;;;;;;;17.76;20.22;102230.13;4951252;29;20059;-81
2023/04/04 10:31:06;;;;;;;3.22;0.73;;;;;;;17.27;20.55;102231.63;4935632;29;20071;-81
2023/04/04 10:34:15;;;;;;;1.85;0.52;;;;;;;17.35;20.89;102221.81;4935063;29;20044;-82
2023/04/04 10:36:50;;;;;;;2.85;0.90;;;;;;;18.13;20.91;102221.66;4919240;29;20386;-81
2023/04/04 10:39:44;;;;;;;0.85;0.50;;;;;;;19.10;20.33;102219.13;4951036;29;20043;-79
2023/04/04 10:42:15;;;;;;;0.45;0.45;;;;;;;18.93;19.17;102225.66;4937206;29;20044;-81
2023/04/04 10:44:41;;;;;;;0.95;0.50;;;;;;;19.59;19.21;102209.25;4934730;29;20083;-81
2023/04/04 10:47:21;;;;;;;0.77;0.57;;;;;;;19.51;18.74;102212.09;4951221;29;20070;-80
2023/04/04 10:49:51;;;;;;;1.58;0.50;;;;;;;19.70;18.88;102206.34;4923019;29;20050;-81
2023/04/04 10:52:24;;;;;;;1.95;0.63;;;;;;;20.23;18.23;102209.56;4938571;29;20040;-81
2023/04/04 10:54:57;;;;;;;;;;;;;;;19.18;18.53;102207.44;4955700;29;20040;-81
2023/04/04 10:57:25;;;;;;;3.30;1.00;;;;;;;19.53;18.91;102183.72;4938855;29;19957;-81
2023/04/04 11:00:04;;;;;;;0.73;0.70;;;;;;;20.09;18.36;102190.44;4954643;29;20044;-81
2023/04/04 11:03:00;;;;;;;1.40;0.63;;;;;;;20.05;17.89;102180.78;4939962;29;20051;-81
2023/04/04 11:05:40;;;;;;;1.10;0.73;;;;;;;19.30;19.34;102179.75;4954859;29;20039;-80
2023/04/04 11:08:09;;;;;;;1.45;0.57;;;;;;;18.37;19.54;102182.41;4954463;29;20063;-81
2023/04/04 11:10:38;;;;;;;4.00;0.82;;;;;;;19.03;20.07;102180.34;4923439;29;20047;-80
2023/04/04 11:13:34;;;;;;;1.88;1.38;;;;;;;19.65;19.00;102170.16;4938753;29;20479;-80
2023/04/04 11:16:03;;;;;;;1.08;0.60;;;;;;;20.05;19.10;102162.19;4940061;29;20047;-81
2023/04/04 11:18:46;;;;;;;0.90;0.65;;;;;;;20.56;17.81;102160.88;4934350;29;20052;-81
2023/04/04 11:21:22;;;;;;;1.27;0.73;;;;;;;20.96;17.90;102163.34;4949866;29;20051;-81
2023/04/04 11:23:49;;;;;;;0.28;0.28;;;;;;;21.38;18.39;102159.47;4928409;29;20047;-82
2023/04/04 11:26:19;;;;;;;1.38;0.73;;;;;;;21.66;17.74;102155.97;4957424;29;20082;-80
2023/04/04 11:28:47;;;;;;;4.63;1.85;;;;;;;21.40;17.55;102154.94;4957210;29;20048;-82
2023/04/04 11:31:19;;;;;;;4.13;1.05;;;;;;;21.35;17.59;102154.22;4958302;29;20042;-82
2023/04/04 11:34:15;;;;;;;0.75;0.50;;;;;;;22.01;17.36;102158.44;4958010;29;20054;-82